Time,TemperatureF,DewpointF,PressureIn,WindDirection,WindDirectionDegrees,WindSpeedMPH,WindSpeedGustMPH,Humidity,HourlyPrecipIn,Conditions,Clouds,dailyrainin,SoftwareType,DateUTC
2013-11-02 00:02:00,44.7,39.2,29.92,West,268,1.0,1.0,81,0.00,,,0.00,LWC V2.00 B2112,2013-11-02 07:02:00,
2013-11-02 00:07:00,44.7,39.2,29.92,West,268,1.0,2.0,81,0.00,,,0.00,LWC V2.00 B2112,2013-11-02 07:07:00,
2013-11-02 00:12:00,44.6,39.5,29.91,West,268,1.0,1.0,82,0.00,,,0.00,LWC V2.00 B2112,2013-11-02 07:12:00,
2013-11-02 00:17:00,44.5,39.4,29.91,West,269,0.0,1.0,82,0.00,,,0.00,LWC V2.00 B2112,2013-11-02 07:17:00,
2013-11-02 00:22:00,44.4,39.6,29.90,West,269,0.0,0.0,83,0.00,,,0.00,LWC V2.00 B2112,2013-11-02 07:22:00,
2013-11-02 00:27:00,44.3,39.5,29.89,SW,219,2.0,2.0,83,0.00,,,0.00,LWC V2.00 B2112,2013-11-02 07:27:00,
2013-11-02 00:32:00,44.2,39.1,29.88,SW,215,1.0,1.0,82,0.00,,,0.00,LWC V2.00 B2112,2013-11-02 07:32:00,
2013-11-02 00:37:00,44.3,39.5,29.88,West,281,1.0,3.0,83,0.00,,,0.00,LWC V2.00 B2112,2013-11-02 07:37:00,
2013-11-02 00:42:00,44.2,39.7,29.87,West,280,0.0,0.0,84,0.00,,,0.00,LWC V2.00 B2112,2013-11-02 07:42:00,
2013-11-02 00:47:00,44.1,39.6,29.87,West,280,0.0,0.0,84,0.00,,,0.00,LWC V2.00 B2112,2013-11-02 07:47:00,
2013-11-02 00:52:00,44.0,39.2,29.87,North,355,1.0,2.0,83,0.00,,,0.00,LWC V2.00 B2112,2013-11-02 07:52:00,
2013-11-02 00:57:00,44.0,38.9,29.87,WNW,291,1.0,2.0,82,0.00,,,0.00,LWC V2.00 B2112,2013-11-02 07:57:00,
2013-11-02 01:02:00,44.2,39.4,29.87,WNW,291,0.0,1.0,83,0.00,,,0.00,LWC V2.00 B2112,2013-11-02 08:02:00,
2013-11-02 01:07:00,44.2,39.4,29.87,WNW,291,0.0,0.0,83,0.00,,,0.00,LWC V2.00 B2112,2013-11-02 08:07:00,
2013-11-02 01:12:00,44.1,39.3,29.86,WNW,291,0.0,0.0,83,0.00,,,0.00,LWC V2.00 B2112,2013-11-02 08:12:00,
2013-11-02 01:17:00,44.1,39.3,29.85,WNW,296,1.0,1.0,83,0.00,,,0.00,LWC V2.00 B2112,2013-11-02 08:17:00,
2013-11-02 01:22:00,44.2,39.1,29.85,NNE,30,0.0,1.0,82,0.00,,,0.00,LWC V2.00 B2112,2013-11-02 08:22:00,
2013-11-02 01:27:00,44.3,38.8,29.85,NNE,22,2.0,2.0,81,0.00,,,0.00,LWC V2.00 B2112,2013-11-02 08:27:00,
2013-11-02 01:32:00,44.4,39.3,29.84,WSW,253,1.0,1.0,82,0.00,,,0.00,LWC V2.00 B2112,2013-11-02 08:32:00,
2013-11-02 01:37:00,44.4,39.3,29.84,NW,310,1.0,2.0,82,0.00,,,0.00,LWC V2.00 B2112,2013-11-02 08:37:00,
2013-11-02 01:42:00,44.5,38.7,29.84,NNW,340,1.0,2.0,80,0.00,,,0.00,LWC V2.00 B2112,2013-11-02 08:42:00,
2013-11-02 01:47:00,44.6,39.1,29.84,NNW,340,0.0,0.0,81,0.00,,,0.00,LWC V2.00 B2112,2013-11-02 08:47:00,
2013-11-02 01:52:00,44.7,39.2,29.84,NNW,340,0.0,0.0,81,0.00,,,0.00,LWC V2.00 B2112,2013-11-02 08:52:00,
2013-11-02 01:57:00,44.7,39.2,29.84,NNW,338,2.0,2.0,81,0.00,,,0.00,LWC V2.00 B2112,2013-11-02 08:57:00,
2013-11-02 02:02:00,44.8,39.3,29.84,ENE,67,1.0,2.0,81,0.00,,,0.00,LWC V2.00 B2112,2013-11-02 09:02:00,
2013-11-02 02:07:00,44.8,39.0,29.84,ESE,115,0.0,1.0,80,0.00,,,0.00,LWC V2.00 B2112,2013-11-02 09:07:00,
2013-11-02 02:13:00,44.9,39.4,29.84,ESE,115,0.0,1.0,81,0.00,,,0.00,LWC V2.00 B2112,2013-11-02 09:13:00,
2013-11-02 02:18:00,44.9,39.4,29.84,ESE,115,0.0,1.0,81,0.00,,,0.00,LWC V2.00 B2112,2013-11-02 09:18:00,
2013-11-02 02:23:00,44.9,39.4,29.83,ESE,115,0.0,1.0,81,0.00,,,0.00,LWC V2.00 B2112,2013-11-02 09:23:00,
2013-11-02 02:28:00,44.9,39.1,29.83,ESE,115,0.0,0.0,80,0.00,,,0.00,LWC V2.00 B2112,2013-11-02 09:28:00,
2013-11-02 02:33:00,44.9,39.7,29.83,ESE,115,0.0,0.0,82,0.00,,,0.00,LWC V2.00 B2112,2013-11-02 09:33:00,
2013-11-02 02:38:00,44.9,39.7,29.83,SW,217,2.0,2.0,82,0.00,,,0.00,LWC V2.00 B2112,2013-11-02 09:38:00,
2013-11-02 02:43:00,44.8,39.6,29.83,WSW,253,2.0,2.0,82,0.00,,,0.00,LWC V2.00 B2112,2013-11-02 09:43:00,
2013-11-02 02:48:00,44.8,40.0,29.82,WNW,299,1.0,2.0,83,0.00,,,0.00,LWC V2.00 B2112,2013-11-02 09:48:00,
2013-11-02 02:53:00,44.8,39.6,29.82,West,266,3.0,3.0,82,0.00,,,0.00,LWC V2.00 B2112,2013-11-02 09:53:00,
2013-11-02 02:58:00,45.0,40.2,29.81,West,266,3.0,4.0,83,0.00,,,0.00,LWC V2.00 B2112,2013-11-02 09:58:00,
2013-11-02 03:03:00,45.1,40.6,29.81,WSW,250,0.0,1.0,84,0.00,,,0.00,LWC V2.00 B2112,2013-11-02 10:03:00,
2013-11-02 03:08:00,45.0,40.5,29.81,WSW,250,0.0,0.0,84,0.00,,,0.00,LWC V2.00 B2112,2013-11-02 10:08:00,
2013-11-02 03:13:00,44.9,40.4,29.80,WSW,250,0.0,1.0,84,0.00,,,0.00,LWC V2.00 B2112,2013-11-02 10:13:00,
2013-11-02 03:18:00,44.8,40.6,29.80,West,264,1.0,2.0,85,0.00,,,0.00,LWC V2.00 B2112,2013-11-02 10:18:00,
2013-11-02 03:23:00,44.8,40.9,29.80,SW,232,1.0,2.0,86,0.00,,,0.00,LWC V2.00 B2112,2013-11-02 10:23:00,
2013-11-02 03:28:00,44.6,41.0,29.79,SW,232,0.0,0.0,87,0.00,,,0.00,LWC V2.00 B2112,2013-11-02 10:28:00,
2013-11-02 03:33:00,44.4,40.8,29.79,SW,232,0.0,0.0,87,0.00,,,0.01,LWC V2.00 B2112,2013-11-02 10:33:00,
2013-11-02 03:38:00,44.3,40.7,29.78,SW,232,0.0,0.0,87,0.00,,,0.01,LWC V2.00 B2112,2013-11-02 10:38:00,
2013-11-02 03:43:00,44.3,41.3,29.78,SW,232,0.0,1.0,89,0.00,,,0.01,LWC V2.00 B2112,2013-11-02 10:43:00,
2013-11-02 03:48:00,44.1,41.4,29.78,SW,232,1.0,1.0,90,0.00,,,0.01,LWC V2.00 B2112,2013-11-02 10:48:00,
2013-11-02 03:53:00,44.1,41.4,29.77,SW,232,0.0,0.0,90,0.00,,,0.01,LWC V2.00 B2112,2013-11-02 10:53:00,
2013-11-02 03:58:00,44.0,41.3,29.76,West,264,1.0,2.0,90,0.00,,,0.02,LWC V2.00 B2112,2013-11-02 10:58:00,
2013-11-02 04:03:00,43.8,41.3,29.75,West,279,2.0,3.0,91,0.10,,,0.03,LWC V2.00 B2112,2013-11-02 11:03:00,
2013-11-02 04:08:00,43.7,41.5,29.75,WNW,302,1.0,2.0,92,0.10,,,0.03,LWC V2.00 B2112,2013-11-02 11:08:00,
2013-11-02 04:13:00,43.6,41.4,29.75,SE,129,0.0,1.0,92,0.06,,,0.03,LWC V2.00 B2112,2013-11-02 11:13:00,
2013-11-02 04:18:00,43.5,41.6,29.75,WSW,238,2.0,2.0,93,0.04,,,0.03,LWC V2.00 B2112,2013-11-02 11:18:00,
2013-11-02 04:23:00,43.4,41.5,29.75,NW,322,2.0,3.0,93,0.00,,,0.03,LWC V2.00 B2112,2013-11-02 11:23:00,
2013-11-02 04:28:00,43.4,41.5,29.75,WNW,292,1.0,1.0,93,0.00,,,0.03,LWC V2.00 B2112,2013-11-02 11:28:00,
2013-11-02 04:33:00,43.5,41.9,29.75,WNW,292,0.0,1.0,94,0.00,,,0.03,LWC V2.00 B2112,2013-11-02 11:33:00,
2013-11-02 04:38:00,43.4,41.8,29.74,WNW,292,1.0,1.0,94,0.00,,,0.03,LWC V2.00 B2112,2013-11-02 11:38:00,
2013-11-02 04:43:00,43.5,41.9,29.74,West,273,3.0,6.0,94,0.00,,,0.03,LWC V2.00 B2112,2013-11-02 11:43:00,
2013-11-02 04:48:00,43.6,42.0,29.73,WNW,284,2.0,3.0,94,0.00,,,0.03,LWC V2.00 B2112,2013-11-02 11:48:00,
2013-11-02 04:53:00,43.6,42.0,29.72,WNW,282,1.0,2.0,94,0.00,,,0.03,LWC V2.00 B2112,2013-11-02 11:53:00,
2013-11-02 04:58:00,43.7,42.1,29.72,West,259,2.0,3.0,94,0.00,,,0.04,LWC V2.00 B2112,2013-11-02 11:58:00,
2013-11-02 05:03:00,43.8,42.2,29.71,WNW,283,1.0,2.0,94,0.00,,,0.04,LWC V2.00 B2112,2013-11-02 12:03:00,
2013-11-02 05:08:00,43.8,42.2,29.71,WSW,257,3.0,3.0,94,0.00,,,0.04,LWC V2.00 B2112,2013-11-02 12:08:00,
2013-11-02 05:13:00,43.8,42.2,29.71,West,273,3.0,3.0,94,0.00,,,0.04,LWC V2.00 B2112,2013-11-02 12:13:00,
2013-11-02 05:18:00,43.8,42.2,29.70,West,276,1.0,1.0,94,0.00,,,0.05,LWC V2.00 B2112,2013-11-02 12:18:00,
2013-11-02 05:23:00,43.8,42.2,29.70,West,280,1.0,2.0,94,0.00,,,0.05,LWC V2.00 B2112,2013-11-02 12:23:00,
2013-11-02 05:28:00,43.8,42.2,29.69,West,269,1.0,2.0,94,0.00,,,0.05,LWC V2.00 B2112,2013-11-02 12:28:00,
2013-11-02 05:33:00,43.8,42.2,29.69,North,0,0.0,1.0,94,0.00,,,0.06,LWC V2.00 B2112,2013-11-02 12:33:00,
2013-11-02 05:38:00,43.8,42.2,29.69,West,271,2.0,2.0,94,0.00,,,0.06,LWC V2.00 B2112,2013-11-02 12:38:00,
2013-11-02 05:43:00,43.8,42.2,29.69,West,272,0.0,0.0,94,0.00,,,0.06,LWC V2.00 B2112,2013-11-02 12:43:00,
2013-11-02 05:48:00,43.8,42.2,29.69,West,272,0.0,0.0,94,0.00,,,0.06,LWC V2.00 B2112,2013-11-02 12:48:00,
2013-11-02 05:53:00,43.8,42.2,29.68,West,272,0.0,0.0,94,0.00,,,0.06,LWC V2.00 B2112,2013-11-02 12:53:00,
2013-11-02 05:58:00,43.8,42.2,29.68,West,272,0.0,1.0,94,0.00,,,0.06,LWC V2.00 B2112,2013-11-02 12:58:00,
2013-11-02 06:03:00,43.8,42.5,29.68,West,272,0.0,0.0,95,0.00,,,0.06,LWC V2.00 B2112,2013-11-02 13:03:00,
2013-11-02 06:08:00,43.8,42.5,29.68,West,272,0.0,0.0,95,0.00,,,0.06,LWC V2.00 B2112,2013-11-02 13:08:00,
2013-11-02 06:13:00,43.7,42.4,29.68,West,272,0.0,1.0,95,0.00,,,0.07,LWC V2.00 B2112,2013-11-02 13:13:00,
2013-11-02 06:18:00,43.7,42.4,29.67,West,272,0.0,0.0,95,0.00,,,0.07,LWC V2.00 B2112,2013-11-02 13:18:00,
2013-11-02 06:23:00,43.7,42.4,29.67,NW,308,0.0,2.0,95,0.00,,,0.07,LWC V2.00 B2112,2013-11-02 13:23:00,
2013-11-02 06:28:00,43.7,42.4,29.67,NW,308,0.0,0.0,95,0.04,,,0.08,LWC V2.00 B2112,2013-11-02 13:28:00,
2013-11-02 06:33:00,43.7,42.4,29.67,NW,308,1.0,1.0,95,0.13,,,0.09,LWC V2.00 B2112,2013-11-02 13:33:00,
2013-11-02 06:38:00,43.7,42.4,29.67,NW,308,1.0,1.0,95,0.08,,,0.09,LWC V2.00 B2112,2013-11-02 13:38:00,
2013-11-02 06:43:00,43.7,42.4,29.66,West,281,2.0,2.0,95,0.06,,,0.10,LWC V2.00 B2112,2013-11-02 13:43:00,
2013-11-02 06:48:00,43.8,42.5,29.66,WSW,258,1.0,2.0,95,0.06,,,0.10,LWC V2.00 B2112,2013-11-02 13:48:00,
2013-11-02 06:53:00,43.8,42.5,29.66,West,274,1.0,2.0,95,0.08,,,0.11,LWC V2.00 B2112,2013-11-02 13:53:00,
2013-11-02 06:58:00,43.8,42.5,29.66,West,274,1.0,1.0,95,0.06,,,0.11,LWC V2.00 B2112,2013-11-02 13:58:00,
2013-11-02 07:03:00,43.7,42.4,29.65,West,274,0.0,0.0,95,0.04,,,0.11,LWC V2.00 B2112,2013-11-02 14:03:00,
2013-11-02 07:08:00,43.8,42.5,29.66,West,274,0.0,0.0,95,0.00,,,0.11,LWC V2.00 B2112,2013-11-02 14:08:00,
2013-11-02 07:13:00,43.7,42.4,29.66,West,274,1.0,1.0,95,0.00,,,0.11,LWC V2.00 B2112,2013-11-02 14:13:00,
2013-11-02 07:18:00,43.7,42.4,29.65,West,274,0.0,1.0,95,0.00,,,0.11,LWC V2.00 B2112,2013-11-02 14:18:00,
2013-11-02 07:23:00,43.7,42.4,29.66,West,274,1.0,2.0,95,0.00,,,0.11,LWC V2.00 B2112,2013-11-02 14:23:00,
2013-11-02 07:28:00,43.6,42.3,29.65,West,274,1.0,1.0,95,0.00,,,0.11,LWC V2.00 B2112,2013-11-02 14:28:00,
2013-11-02 07:33:00,43.6,42.5,29.64,West,281,2.0,2.0,96,0.00,,,0.12,LWC V2.00 B2112,2013-11-02 14:33:00,
2013-11-02 07:38:00,43.6,42.5,29.64,West,260,2.0,4.0,96,0.00,,,0.12,LWC V2.00 B2112,2013-11-02 14:38:00,
2013-11-02 07:43:00,43.7,42.6,29.63,West,259,0.0,1.0,96,0.00,,,0.12,LWC V2.00 B2112,2013-11-02 14:43:00,
2013-11-02 07:48:00,43.6,42.5,29.62,ESE,109,2.0,4.0,96,0.00,,,0.12,LWC V2.00 B2112,2013-11-02 14:48:00,
2013-11-02 07:53:00,43.6,42.5,29.61,SE,124,0.0,0.0,96,0.00,,,0.12,LWC V2.00 B2112,2013-11-02 14:53:00,
2013-11-02 07:58:00,43.6,42.5,29.61,North,355,1.0,1.0,96,0.00,,,0.12,LWC V2.00 B2112,2013-11-02 14:58:00,
2013-11-02 08:03:00,43.7,42.6,29.59,NE,49,0.0,1.0,96,0.00,,,0.12,LWC V2.00 B2112,2013-11-02 15:03:00,
2013-11-02 08:08:00,43.7,42.6,29.62,WSW,252,3.0,4.0,96,0.00,,,0.12,LWC V2.00 B2112,2013-11-02 15:08:00,
2013-11-02 08:13:00,43.7,42.6,29.59,ENE,62,4.0,5.0,96,0.00,,,0.12,LWC V2.00 B2112,2013-11-02 15:13:00,
2013-11-02 08:18:00,43.8,42.7,29.60,ESE,112,2.0,2.0,96,0.00,,,0.12,LWC V2.00 B2112,2013-11-02 15:18:00,
2013-11-02 08:23:00,43.9,42.8,29.61,ESE,107,0.0,0.0,96,0.00,,,0.12,LWC V2.00 B2112,2013-11-02 15:23:00,
2013-11-02 08:28:00,43.9,42.8,29.60,WNW,290,2.0,3.0,96,0.00,,,0.12,LWC V2.00 B2112,2013-11-02 15:28:00,
2013-11-02 08:33:00,44.0,42.9,29.60,West,277,3.0,4.0,96,0.00,,,0.12,LWC V2.00 B2112,2013-11-02 15:33:00,
2013-11-02 08:38:00,44.0,42.9,29.59,WNW,287,1.0,2.0,96,0.00,,,0.12,LWC V2.00 B2112,2013-11-02 15:38:00,
2013-11-02 08:43:00,44.0,42.9,29.58,WNW,287,2.0,2.0,96,0.00,,,0.12,LWC V2.00 B2112,2013-11-02 15:43:00,
2013-11-02 08:48:00,44.0,42.9,29.57,WNW,287,1.0,2.0,96,0.00,,,0.12,LWC V2.00 B2112,2013-11-02 15:48:00,
2013-11-02 08:53:00,44.1,43.0,29.59,West,273,1.0,2.0,96,0.00,,,0.12,LWC V2.00 B2112,2013-11-02 15:53:00,
2013-11-02 08:58:00,44.2,43.1,29.59,ESE,103,2.0,2.0,96,0.00,,,0.12,LWC V2.00 B2112,2013-11-02 15:58:00,
2013-11-02 09:03:00,44.2,43.1,29.58,East,80,1.0,2.0,96,0.00,,,0.12,LWC V2.00 B2112,2013-11-02 16:03:00,
2013-11-02 09:08:00,44.3,43.2,29.58,East,80,0.0,0.0,96,0.00,,,0.12,LWC V2.00 B2112,2013-11-02 16:08:00,
2013-11-02 09:13:00,44.3,43.2,29.58,East,80,0.0,0.0,96,0.00,,,0.12,LWC V2.00 B2112,2013-11-02 16:13:00,
2013-11-02 09:18:00,44.4,43.3,29.57,East,80,0.0,1.0,96,0.00,,,0.12,LWC V2.00 B2112,2013-11-02 16:18:00,
2013-11-02 09:23:00,44.5,43.4,29.57,East,80,0.0,0.0,96,0.00,,,0.12,LWC V2.00 B2112,2013-11-02 16:23:00,
2013-11-02 09:28:00,44.5,43.4,29.56,ENE,78,1.0,2.0,96,0.00,,,0.12,LWC V2.00 B2112,2013-11-02 16:28:00,
2013-11-02 09:33:00,44.6,43.5,29.55,East,88,1.0,3.0,96,0.00,,,0.12,LWC V2.00 B2112,2013-11-02 16:33:00,
2013-11-02 09:38:00,44.7,43.6,29.56,ENE,74,1.0,3.0,96,0.00,,,0.12,LWC V2.00 B2112,2013-11-02 16:38:00,
2013-11-02 09:43:00,44.7,43.6,29.56,North,5,1.0,2.0,96,0.00,,,0.12,LWC V2.00 B2112,2013-11-02 16:43:00,
2013-11-02 09:48:00,44.8,43.7,29.55,North,5,1.0,2.0,96,0.00,,,0.12,LWC V2.00 B2112,2013-11-02 16:48:00,
2013-11-02 09:53:00,44.9,43.6,29.55,North,355,1.0,2.0,95,0.00,,,0.12,LWC V2.00 B2112,2013-11-02 16:53:00,
2013-11-02 09:58:00,44.9,43.6,29.55,West,266,2.0,3.0,95,0.00,,,0.12,LWC V2.00 B2112,2013-11-02 16:58:00,
2013-11-02 10:03:00,45.0,43.7,29.55,West,267,0.0,2.0,95,0.00,,,0.12,LWC V2.00 B2112,2013-11-02 17:03:00,
2013-11-02 10:08:00,45.1,43.8,29.55,West,265,2.0,3.0,95,0.00,,,0.12,LWC V2.00 B2112,2013-11-02 17:08:00,
2013-11-02 10:13:00,45.2,43.9,29.54,West,278,1.0,2.0,95,0.00,,,0.12,LWC V2.00 B2112,2013-11-02 17:13:00,
2013-11-02 10:18:00,45.2,43.9,29.54,West,267,1.0,2.0,95,0.00,,,0.12,LWC V2.00 B2112,2013-11-02 17:18:00,
2013-11-02 10:23:00,45.4,44.1,29.54,West,275,0.0,1.0,95,0.00,,,0.12,LWC V2.00 B2112,2013-11-02 17:23:00,
2013-11-02 10:28:00,45.4,44.1,29.54,West,280,0.0,0.0,95,0.00,,,0.13,LWC V2.00 B2112,2013-11-02 17:28:00,
2013-11-02 10:33:00,45.5,44.2,29.54,West,280,1.0,1.0,95,0.00,,,0.13,LWC V2.00 B2112,2013-11-02 17:33:00,
2013-11-02 10:38:00,45.5,44.2,29.53,ESE,117,0.0,2.0,95,0.00,,,0.13,LWC V2.00 B2112,2013-11-02 17:38:00,
2013-11-02 10:43:00,45.6,44.3,29.54,ESE,117,0.0,1.0,95,0.05,,,0.14,LWC V2.00 B2112,2013-11-02 17:43:00,
2013-11-02 10:48:00,45.6,44.3,29.53,ESE,117,0.0,0.0,95,0.05,,,0.14,LWC V2.00 B2112,2013-11-02 17:48:00,
2013-11-02 10:53:00,45.7,44.1,29.53,ESE,117,1.0,2.0,94,0.05,,,0.14,LWC V2.00 B2112,2013-11-02 17:53:00,
2013-11-02 10:58:00,46.0,44.6,29.52,ESE,106,0.0,1.0,95,0.00,,,0.14,LWC V2.00 B2112,2013-11-02 17:58:00,
2013-11-02 11:03:00,46.2,44.8,29.52,ESE,112,1.0,2.0,95,0.00,,,0.14,LWC V2.00 B2112,2013-11-02 18:03:00,
2013-11-02 11:08:00,46.4,45.0,29.53,ESE,115,0.0,1.0,95,0.00,,,0.14,LWC V2.00 B2112,2013-11-02 18:08:00,
2013-11-02 11:13:00,46.5,44.9,29.53,ESE,115,0.0,0.0,94,0.00,,,0.14,LWC V2.00 B2112,2013-11-02 18:13:00,
2013-11-02 11:18:00,46.6,44.7,29.53,ESE,104,0.0,1.0,93,0.00,,,0.14,LWC V2.00 B2112,2013-11-02 18:18:00,
2013-11-02 11:23:00,46.7,44.8,29.53,ESE,104,0.0,0.0,93,0.00,,,0.14,LWC V2.00 B2112,2013-11-02 18:23:00,
2013-11-02 11:28:00,46.8,44.6,29.53,East,90,1.0,1.0,92,0.00,,,0.14,LWC V2.00 B2112,2013-11-02 18:28:00,
2013-11-02 11:33:00,47.0,45.4,29.52,East,90,0.0,1.0,94,0.00,,,0.14,LWC V2.00 B2112,2013-11-02 18:33:00,
2013-11-02 11:38:00,47.4,45.2,29.51,WNW,285,3.0,3.0,92,0.00,,,0.14,LWC V2.00 B2112,2013-11-02 18:38:00,
2013-11-02 11:43:00,47.8,45.3,29.51,WNW,286,1.0,2.0,91,0.00,,,0.14,LWC V2.00 B2112,2013-11-02 18:43:00,
2013-11-02 11:48:00,47.8,45.3,29.51,SW,221,1.0,2.0,91,0.00,,,0.14,LWC V2.00 B2112,2013-11-02 18:48:00,
2013-11-02 11:53:00,47.9,44.8,29.51,West,265,0.0,1.0,89,0.00,,,0.14,LWC V2.00 B2112,2013-11-02 18:53:00,
2013-11-02 11:58:00,48.2,45.4,29.51,ESE,113,1.0,2.0,90,0.00,,,0.14,LWC V2.00 B2112,2013-11-02 18:58:00,
2013-11-02 12:03:00,48.5,46.0,29.51,SE,134,1.0,3.0,91,0.00,,,0.14,LWC V2.00 B2112,2013-11-02 19:03:00,
2013-11-02 12:08:00,48.9,45.5,29.50,ENE,72,2.0,4.0,88,0.00,,,0.14,LWC V2.00 B2112,2013-11-02 19:08:00,
2013-11-02 12:13:00,49.1,46.0,29.50,ENE,59,3.0,4.0,89,0.00,,,0.14,LWC V2.00 B2112,2013-11-02 19:13:00,
2013-11-02 12:18:00,49.5,46.1,29.50,East,84,2.0,4.0,88,0.00,,,0.14,LWC V2.00 B2112,2013-11-02 19:18:00,
2013-11-02 12:23:00,50.0,46.3,29.49,ESE,110,3.0,3.0,87,0.00,,,0.14,LWC V2.00 B2112,2013-11-02 19:23:00,
2013-11-02 12:28:00,50.1,45.8,29.49,SE,128,1.0,1.0,85,0.00,,,0.14,LWC V2.00 B2112,2013-11-02 19:28:00,
2013-11-02 12:33:00,50.2,46.2,29.49,NW,319,2.0,3.0,86,0.00,,,0.14,LWC V2.00 B2112,2013-11-02 19:33:00,
2013-11-02 12:38:00,50.7,46.4,29.48,NW,316,1.0,2.0,85,0.00,,,0.14,LWC V2.00 B2112,2013-11-02 19:38:00,
2013-11-02 12:43:00,51.0,46.7,29.48,West,269,3.0,7.0,85,0.00,,,0.14,LWC V2.00 B2112,2013-11-02 19:43:00,
2013-11-02 12:48:00,51.0,46.3,29.48,West,275,3.0,6.0,84,0.00,,,0.14,LWC V2.00 B2112,2013-11-02 19:48:00,
2013-11-02 12:53:00,51.0,46.3,29.48,SW,234,1.0,3.0,84,0.00,,,0.14,LWC V2.00 B2112,2013-11-02 19:53:00,
2013-11-02 12:58:00,51.4,45.8,29.48,NW,321,3.0,7.0,81,0.00,,,0.14,LWC V2.00 B2112,2013-11-02 19:58:00,
2013-11-02 13:03:00,51.9,46.3,29.48,West,280,3.0,5.0,81,0.00,,,0.14,LWC V2.00 B2112,2013-11-02 20:03:00,
2013-11-02 13:08:00,52.3,47.3,29.48,West,259,4.0,7.0,83,0.00,,,0.14,LWC V2.00 B2112,2013-11-02 20:08:00,
2013-11-02 13:13:00,52.9,46.9,29.48,NW,304,4.0,6.0,80,0.00,,,0.14,LWC V2.00 B2112,2013-11-02 20:13:00,
2013-11-02 13:18:00,53.2,47.5,29.48,NW,319,5.0,9.0,81,0.00,,,0.14,LWC V2.00 B2112,2013-11-02 20:18:00,
2013-11-02 13:23:00,53.5,46.1,29.49,NW,324,5.0,12.0,76,0.00,,,0.14,LWC V2.00 B2112,2013-11-02 20:23:00,
2013-11-02 13:28:00,53.3,44.5,29.49,WNW,292,5.0,7.0,72,0.00,,,0.14,LWC V2.00 B2112,2013-11-02 20:28:00,
2013-11-02 13:33:00,53.0,41.6,29.50,NNW,344,12.0,20.0,65,0.00,,,0.14,LWC V2.00 B2112,2013-11-02 20:33:00,
2013-11-02 13:38:00,52.6,42.0,29.50,WNW,296,4.0,13.0,67,0.00,,,0.14,LWC V2.00 B2112,2013-11-02 20:38:00,
2013-11-02 13:43:00,52.4,42.2,29.51,NW,319,9.0,13.0,68,0.00,,,0.14,LWC V2.00 B2112,2013-11-02 20:43:00,
2013-11-02 13:48:00,52.1,41.5,29.51,WNW,302,9.0,14.0,67,0.00,,,0.14,LWC V2.00 B2112,2013-11-02 20:48:00,
2013-11-02 13:53:00,51.7,40.7,29.51,NW,320,5.0,10.0,66,0.00,,,0.14,LWC V2.00 B2112,2013-11-02 20:53:00,
2013-11-02 13:58:00,51.7,40.3,29.51,NW,312,4.0,9.0,65,0.00,,,0.14,LWC V2.00 B2112,2013-11-02 20:58:00,
2013-11-02 14:03:00,51.7,40.3,29.52,NW,316,6.0,12.0,65,0.00,,,0.14,LWC V2.00 B2112,2013-11-02 21:03:00,
2013-11-02 14:08:00,51.9,40.5,29.51,WNW,287,5.0,7.0,65,0.00,,,0.14,LWC V2.00 B2112,2013-11-02 21:08:00,
2013-11-02 14:13:00,51.8,40.4,29.52,NW,319,2.0,7.0,65,0.00,,,0.14,LWC V2.00 B2112,2013-11-02 21:13:00,
2013-11-02 14:18:00,51.8,40.0,29.52,ENE,59,4.0,6.0,64,0.00,,,0.14,LWC V2.00 B2112,2013-11-02 21:18:00,
2013-11-02 14:23:00,51.7,39.9,29.52,NE,53,4.0,8.0,64,0.00,,,0.14,LWC V2.00 B2112,2013-11-02 21:23:00,
2013-11-02 14:28:00,51.7,40.3,29.52,NW,311,5.0,9.0,65,0.00,,,0.14,LWC V2.00 B2112,2013-11-02 21:28:00,
2013-11-02 14:33:00,51.7,40.3,29.52,WNW,288,2.0,4.0,65,0.00,,,0.14,LWC V2.00 B2112,2013-11-02 21:33:00,
2013-11-02 14:38:00,51.6,39.8,29.52,NE,47,0.0,3.0,64,0.00,,,0.14,LWC V2.00 B2112,2013-11-02 21:38:00,
2013-11-02 14:43:00,51.6,39.8,29.53,WNW,288,1.0,1.0,64,0.00,,,0.14,LWC V2.00 B2112,2013-11-02 21:43:00,
2013-11-02 14:48:00,51.5,39.3,29.53,NE,51,2.0,5.0,63,0.00,,,0.14,LWC V2.00 B2112,2013-11-02 21:48:00,
2013-11-02 14:53:00,51.4,39.2,29.53,NNE,12,1.0,2.0,63,0.00,,,0.14,LWC V2.00 B2112,2013-11-02 21:53:00,
2013-11-02 14:58:00,51.2,39.0,29.53,ENE,65,1.0,4.0,63,0.00,,,0.14,LWC V2.00 B2112,2013-11-02 21:58:00,
2013-11-02 15:03:00,50.9,39.2,29.54,West,267,2.0,7.0,64,0.00,,,0.14,LWC V2.00 B2112,2013-11-02 22:03:00,
2013-11-02 15:08:00,50.6,38.5,29.55,NNW,341,2.0,5.0,63,0.00,,,0.14,LWC V2.00 B2112,2013-11-02 22:08:00,
2013-11-02 15:13:00,50.3,39.0,29.55,NW,311,4.0,5.0,65,0.00,,,0.14,LWC V2.00 B2112,2013-11-02 22:13:00,
2013-11-02 15:18:00,50.0,38.7,29.55,West,267,7.0,12.0,65,0.00,,,0.14,LWC V2.00 B2112,2013-11-02 22:18:00,
2013-11-02 15:23:00,49.7,38.4,29.55,NW,324,12.0,19.0,65,0.00,,,0.14,LWC V2.00 B2112,2013-11-02 22:23:00,
2013-11-02 15:28:00,49.4,38.1,29.56,West,281,4.0,9.0,65,0.00,,,0.14,LWC V2.00 B2112,2013-11-02 22:28:00,
2013-11-02 15:33:00,49.2,39.1,29.56,SSW,210,0.0,3.0,68,0.00,,,0.14,LWC V2.00 B2112,2013-11-02 22:33:00,
2013-11-02 15:38:00,49.2,37.9,29.56,NW,306,5.0,9.0,65,0.00,,,0.14,LWC V2.00 B2112,2013-11-02 22:38:00,
2013-11-02 15:43:00,48.8,36.8,29.57,SW,227,4.0,17.0,63,0.00,,,0.14,LWC V2.00 B2112,2013-11-02 22:43:00,
2013-11-02 15:48:00,48.5,37.7,29.57,NW,304,1.0,9.0,66,0.00,,,0.14,LWC V2.00 B2112,2013-11-02 22:48:00,
2013-11-02 15:53:00,48.4,37.2,29.57,WSW,252,2.0,3.0,65,0.00,,,0.14,LWC V2.00 B2112,2013-11-02 22:53:00,
2013-11-02 15:58:00,48.2,37.8,29.57,SW,236,2.0,4.0,67,0.00,,,0.14,LWC V2.00 B2112,2013-11-02 22:58:00,
2013-11-02 16:03:00,48.1,38.4,29.57,NW,320,3.0,6.0,69,0.00,,,0.14,LWC V2.00 B2112,2013-11-02 23:03:00,
2013-11-02 16:08:00,48.0,37.2,29.58,WNW,296,3.0,8.0,66,0.00,,,0.14,LWC V2.00 B2112,2013-11-02 23:08:00,
2013-11-02 16:13:00,47.9,36.7,29.58,WSW,253,10.0,14.0,65,0.00,,,0.14,LWC V2.00 B2112,2013-11-02 23:13:00,
2013-11-02 16:18:00,47.8,36.2,29.58,NE,37,4.0,9.0,64,0.00,,,0.14,LWC V2.00 B2112,2013-11-02 23:18:00,
2013-11-02 16:23:00,47.7,36.5,29.59,WNW,290,9.0,12.0,65,0.00,,,0.14,LWC V2.00 B2112,2013-11-02 23:23:00,
2013-11-02 16:28:00,47.5,37.5,29.59,SSW,197,1.0,3.0,68,0.00,,,0.14,LWC V2.00 B2112,2013-11-02 23:28:00,
2013-11-02 16:33:00,47.4,36.6,29.60,NNW,336,6.0,14.0,66,0.00,,,0.14,LWC V2.00 B2112,2013-11-02 23:33:00,
2013-11-02 16:38:00,47.2,36.4,29.60,WSW,250,0.0,2.0,66,0.00,,,0.14,LWC V2.00 B2112,2013-11-02 23:38:00,
2013-11-02 16:43:00,47.2,36.0,29.61,NW,307,2.0,12.0,65,0.00,,,0.14,LWC V2.00 B2112,2013-11-02 23:43:00,
2013-11-02 16:48:00,47.3,36.1,29.61,NW,308,4.0,5.0,65,0.00,,,0.14,LWC V2.00 B2112,2013-11-02 23:48:00,
2013-11-02 16:53:00,47.2,35.7,29.61,NW,313,4.0,9.0,64,0.00,,,0.14,LWC V2.00 B2112,2013-11-02 23:53:00,
2013-11-02 16:58:00,47.2,36.0,29.61,SSW,192,1.0,2.0,65,0.00,,,0.14,LWC V2.00 B2112,2013-11-02 23:58:00,
2013-11-02 17:03:00,47.2,35.7,29.61,SW,221,4.0,14.0,64,0.00,,,0.14,LWC V2.00 B2112,2013-11-03 00:03:00,
2013-11-02 17:08:00,47.2,36.4,29.62,West,267,1.0,4.0,66,0.00,,,0.14,LWC V2.00 B2112,2013-11-03 00:08:00,
2013-11-02 17:13:00,47.0,35.9,29.62,West,261,3.0,3.0,65,0.00,,,0.14,LWC V2.00 B2112,2013-11-03 00:13:00,
2013-11-02 17:18:00,47.1,35.2,29.62,West,276,10.0,11.0,63,0.00,,,0.14,LWC V2.00 B2112,2013-11-03 00:18:00,
2013-11-02 17:23:00,47.3,35.3,29.63,NW,320,5.0,8.0,63,0.00,,,0.14,LWC V2.00 B2112,2013-11-03 00:23:00,
2013-11-02 17:28:00,47.2,35.3,29.63,North,355,4.0,5.0,63,0.00,,,0.14,LWC V2.00 B2112,2013-11-03 00:28:00,
2013-11-02 17:33:00,47.1,35.6,29.63,SW,230,3.0,4.0,64,0.00,,,0.14,LWC V2.00 B2112,2013-11-03 00:33:00,
2013-11-02 17:38:00,47.0,35.9,29.64,NW,313,2.0,11.0,65,0.00,,,0.14,LWC V2.00 B2112,2013-11-03 00:38:00,
2013-11-02 17:43:00,46.8,35.7,29.64,West,279,2.0,11.0,65,0.00,,,0.14,LWC V2.00 B2112,2013-11-03 00:43:00,
2013-11-02 17:48:00,46.6,36.2,29.64,North,9,0.0,2.0,67,0.00,,,0.14,LWC V2.00 B2112,2013-11-03 00:48:00,
2013-11-02 17:53:00,46.3,36.0,29.64,NNW,348,3.0,6.0,67,0.00,,,0.14,LWC V2.00 B2112,2013-11-03 00:53:00,
2013-11-02 17:58:00,46.2,35.9,29.65,WNW,295,2.0,7.0,67,0.00,,,0.14,LWC V2.00 B2112,2013-11-03 00:58:00,
2013-11-02 18:03:00,45.8,37.3,29.64,West,273,0.0,1.0,72,0.00,,,0.14,LWC V2.00 B2112,2013-11-03 01:03:00,
2013-11-02 18:08:00,45.5,36.7,29.65,West,272,1.0,2.0,71,0.00,,,0.14,LWC V2.00 B2112,2013-11-03 01:08:00,
2013-11-02 18:13:00,45.2,38.8,29.65,NW,324,1.0,2.0,78,0.00,,,0.15,LWC V2.00 B2112,2013-11-03 01:13:00,
2013-11-02 18:18:00,45.0,38.6,29.65,NW,324,0.0,0.0,78,0.00,,,0.15,LWC V2.00 B2112,2013-11-03 01:18:00,
2013-11-02 18:23:00,44.6,39.1,29.66,NW,319,1.0,1.0,81,0.00,,,0.15,LWC V2.00 B2112,2013-11-03 01:23:00,
2013-11-02 18:28:00,44.2,39.4,29.66,NW,313,0.0,1.0,83,0.00,,,0.15,LWC V2.00 B2112,2013-11-03 01:28:00,
2013-11-02 18:33:00,43.7,39.5,29.66,WNW,302,0.0,2.0,85,0.00,,,0.15,LWC V2.00 B2112,2013-11-03 01:33:00,
2013-11-02 18:38:00,43.4,39.2,29.66,NW,321,0.0,0.0,85,0.00,,,0.15,LWC V2.00 B2112,2013-11-03 01:38:00,
2013-11-02 18:43:00,43.1,39.5,29.66,NW,319,0.0,0.0,87,0.00,,,0.15,LWC V2.00 B2112,2013-11-03 01:43:00,
2013-11-02 18:48:00,42.9,39.3,29.67,NW,323,0.0,0.0,87,0.00,,,0.15,LWC V2.00 B2112,2013-11-03 01:48:00,
2013-11-02 18:53:00,42.8,39.5,29.67,NW,323,0.0,0.0,88,0.00,,,0.15,LWC V2.00 B2112,2013-11-03 01:53:00,
2013-11-02 18:58:00,42.6,39.6,29.67,NW,323,0.0,0.0,89,0.00,,,0.15,LWC V2.00 B2112,2013-11-03 01:58:00,
2013-11-02 19:03:00,42.3,39.3,29.67,ENE,57,0.0,1.0,89,0.00,,,0.15,LWC V2.00 B2112,2013-11-03 02:03:00,
2013-11-02 19:08:00,42.1,39.4,29.68,WNW,287,2.0,2.0,90,0.00,,,0.15,LWC V2.00 B2112,2013-11-03 02:08:00,
2013-11-02 19:13:00,42.0,39.3,29.68,SW,235,0.0,1.0,90,0.00,,,0.15,LWC V2.00 B2112,2013-11-03 02:13:00,
2013-11-02 19:18:00,41.9,39.5,29.68,West,265,1.0,2.0,91,0.00,,,0.15,LWC V2.00 B2112,2013-11-03 02:18:00,
2013-11-02 19:23:00,41.8,39.4,29.68,West,265,0.0,1.0,91,0.00,,,0.15,LWC V2.00 B2112,2013-11-03 02:23:00,
2013-11-02 19:28:00,41.7,39.3,29.68,West,265,0.0,0.0,91,0.00,,,0.15,LWC V2.00 B2112,2013-11-03 02:28:00,
2013-11-02 19:33:00,41.7,39.3,29.69,WNW,295,1.0,2.0,91,0.00,,,0.15,LWC V2.00 B2112,2013-11-03 02:33:00,
2013-11-02 19:38:00,41.7,39.3,29.69,WNW,303,1.0,2.0,91,0.00,,,0.15,LWC V2.00 B2112,2013-11-03 02:38:00,
2013-11-02 19:43:00,41.8,39.4,29.70,WNW,287,2.0,3.0,91,0.00,,,0.15,LWC V2.00 B2112,2013-11-03 02:43:00,
2013-11-02 19:48:00,41.9,39.5,29.70,WNW,282,2.0,3.0,91,0.00,,,0.15,LWC V2.00 B2112,2013-11-03 02:48:00,
2013-11-02 19:53:00,42.1,38.8,29.71,NNE,14,4.0,4.0,88,0.00,,,0.15,LWC V2.00 B2112,2013-11-03 02:53:00,
2013-11-02 19:58:00,42.6,39.0,29.71,NNW,346,5.0,5.0,87,0.00,,,0.15,LWC V2.00 B2112,2013-11-03 02:58:00,
2013-11-02 20:03:00,42.8,39.5,29.72,NNW,333,2.0,2.0,88,0.00,,,0.16,LWC V2.00 B2112,2013-11-03 03:03:00,
2013-11-02 20:08:00,42.8,39.5,29.71,West,265,1.0,2.0,88,0.00,,,0.16,LWC V2.00 B2112,2013-11-03 03:08:00,
2013-11-02 20:13:00,42.6,39.3,29.72,SSW,213,0.0,1.0,88,0.00,,,0.16,LWC V2.00 B2112,2013-11-03 03:13:00,
2013-11-02 20:18:00,42.5,39.8,29.71,WSW,242,1.0,8.0,90,0.00,,,0.16,LWC V2.00 B2112,2013-11-03 03:18:00,
2013-11-02 20:23:00,42.2,39.5,29.72,SW,229,1.0,3.0,90,0.00,,,0.16,LWC V2.00 B2112,2013-11-03 03:23:00,
2013-11-02 20:28:00,42.2,38.9,29.71,South,183,1.0,3.0,88,0.00,,,0.16,LWC V2.00 B2112,2013-11-03 03:28:00,
2013-11-02 20:33:00,42.2,36.8,29.72,SE,126,1.0,4.0,81,0.00,,,0.16,LWC V2.00 B2112,2013-11-03 03:33:00,
2013-11-02 20:38:00,42.9,37.5,29.71,ESE,117,7.0,8.0,81,0.00,,,0.16,LWC V2.00 B2112,2013-11-03 03:38:00,
2013-11-02 20:43:00,43.4,37.3,29.72,ENE,76,2.0,4.0,79,0.00,,,0.16,LWC V2.00 B2112,2013-11-03 03:43:00,
2013-11-02 20:48:00,43.7,37.0,29.72,East,80,1.0,2.0,77,0.00,,,0.16,LWC V2.00 B2112,2013-11-03 03:48:00,
2013-11-02 20:53:00,43.7,36.6,29.73,NW,309,2.0,3.0,76,0.00,,,0.16,LWC V2.00 B2112,2013-11-03 03:53:00,
2013-11-02 20:58:00,43.6,38.2,29.73,SW,235,2.0,3.0,81,0.00,,,0.16,LWC V2.00 B2112,2013-11-03 03:58:00,
2013-11-02 21:01:00,43.3,37.6,29.73,ESE,107,6.0,6.0,80,0.00,,,0.16,LWC V2.00 B2112,2013-11-03 04:01:00,
2013-11-02 21:06:00,43.6,34.8,29.73,WSW,241,2.0,5.0,71,0.00,,,0.16,LWC V2.00 B2112,2013-11-03 04:06:00,
2013-11-02 21:11:00,44.2,36.4,29.73,WSW,249,3.0,6.0,74,0.00,,,0.16,LWC V2.00 B2112,2013-11-03 04:11:00,
2013-11-02 21:16:00,44.4,34.5,29.73,WSW,250,3.0,5.0,68,0.00,,,0.16,LWC V2.00 B2112,2013-11-03 04:16:00,
2013-11-02 21:21:00,44.8,34.5,29.73,SW,218,2.0,10.0,67,0.00,,,0.16,LWC V2.00 B2112,2013-11-03 04:21:00,
2013-11-02 21:26:00,44.8,34.5,29.73,ESE,113,2.0,5.0,67,0.00,,,0.16,LWC V2.00 B2112,2013-11-03 04:26:00,
2013-11-02 21:31:00,44.6,35.4,29.74,South,169,0.0,2.0,70,0.00,,,0.16,LWC V2.00 B2112,2013-11-03 04:31:00,
2013-11-02 21:36:00,44.5,34.2,29.74,SSW,199,3.0,3.0,67,0.00,,,0.16,LWC V2.00 B2112,2013-11-03 04:36:00,
2013-11-02 21:41:00,44.5,36.7,29.74,SSW,193,5.0,5.0,74,0.00,,,0.16,LWC V2.00 B2112,2013-11-03 04:41:00,
2013-11-02 21:46:00,44.5,35.3,29.74,WSW,257,3.0,9.0,70,0.00,,,0.16,LWC V2.00 B2112,2013-11-03 04:46:00,
2013-11-02 21:51:00,44.3,36.5,29.74,SW,226,1.0,3.0,74,0.00,,,0.16,LWC V2.00 B2112,2013-11-03 04:51:00,
2013-11-02 21:56:00,44.0,36.6,29.75,SW,226,0.0,0.0,75,0.00,,,0.16,LWC V2.00 B2112,2013-11-03 04:56:00,
2013-11-02 22:01:00,43.8,35.0,29.75,South,171,1.0,2.0,71,0.00,,,0.16,LWC V2.00 B2112,2013-11-03 05:01:00,
2013-11-02 22:06:00,43.9,36.2,29.75,South,171,1.0,1.0,74,0.00,,,0.16,LWC V2.00 B2112,2013-11-03 05:06:00,
2013-11-02 22:11:00,43.7,34.2,29.75,East,97,2.0,7.0,69,0.00,,,0.16,LWC V2.00 B2112,2013-11-03 05:11:00,
2013-11-02 22:16:00,43.5,36.1,29.75,WNW,290,1.0,2.0,75,0.00,,,0.16,LWC V2.00 B2112,2013-11-03 05:16:00,
2013-11-02 22:21:00,43.2,36.2,29.76,WNW,290,2.0,2.0,76,0.00,,,0.16,LWC V2.00 B2112,2013-11-03 05:21:00,
2013-11-02 22:26:00,42.8,36.1,29.76,West,273,0.0,2.0,77,0.00,,,0.16,LWC V2.00 B2112,2013-11-03 05:26:00,
2013-11-02 22:31:00,42.4,36.7,29.76,ESE,112,1.0,2.0,80,0.00,,,0.16,LWC V2.00 B2112,2013-11-03 05:31:00,
2013-11-02 22:36:00,42.1,35.7,29.76,NE,54,2.0,2.0,78,0.00,,,0.16,LWC V2.00 B2112,2013-11-03 05:36:00,
2013-11-02 22:41:00,42.0,35.6,29.76,NE,54,1.0,1.0,78,0.00,,,0.16,LWC V2.00 B2112,2013-11-03 05:41:00,
2013-11-02 22:46:00,42.0,36.3,29.76,NE,54,0.0,1.0,80,0.00,,,0.16,LWC V2.00 B2112,2013-11-03 05:46:00,
2013-11-02 22:51:00,41.7,36.0,29.76,NE,54,0.0,2.0,80,0.00,,,0.16,LWC V2.00 B2112,2013-11-03 05:51:00,
2013-11-02 22:56:00,41.6,35.6,29.76,ENE,63,0.0,2.0,79,0.00,,,0.16,LWC V2.00 B2112,2013-11-03 05:56:00,
2013-11-02 23:01:00,41.6,35.3,29.76,ESE,113,1.0,2.0,78,0.00,,,0.16,LWC V2.00 B2112,2013-11-03 06:01:00,
2013-11-02 23:06:00,41.8,35.5,29.76,NW,322,0.0,2.0,78,0.00,,,0.16,LWC V2.00 B2112,2013-11-03 06:06:00,
2013-11-02 23:11:00,41.7,35.7,29.76,NW,322,0.0,0.0,79,0.00,,,0.16,LWC V2.00 B2112,2013-11-03 06:11:00,
2013-11-02 23:16:00,41.6,35.3,29.77,East,86,1.0,2.0,78,0.00,,,0.16,LWC V2.00 B2112,2013-11-03 06:16:00,
2013-11-02 23:21:00,41.5,35.5,29.77,SW,221,0.0,2.0,79,0.00,,,0.16,LWC V2.00 B2112,2013-11-03 06:21:00,
2013-11-02 23:26:00,41.4,36.0,29.77,WNW,285,0.0,2.0,81,0.00,,,0.16,LWC V2.00 B2112,2013-11-03 06:26:00,
2013-11-02 23:31:00,41.1,35.7,29.77,WNW,285,1.0,2.0,81,0.00,,,0.16,LWC V2.00 B2112,2013-11-03 06:31:00,
2013-11-02 23:36:00,41.0,35.9,29.77,SSW,201,1.0,1.0,82,0.00,,,0.16,LWC V2.00 B2112,2013-11-03 06:36:00,
2013-11-02 23:41:00,40.8,35.4,29.77,SSW,201,0.0,0.0,81,0.00,,,0.16,LWC V2.00 B2112,2013-11-03 06:41:00,
2013-11-02 23:46:00,40.6,35.2,29.77,SSW,201,1.0,2.0,81,0.00,,,0.16,LWC V2.00 B2112,2013-11-03 06:46:00,
2013-11-02 23:51:00,40.5,35.1,29.77,SSE,155,0.0,1.0,81,0.00,,,0.16,LWC V2.00 B2112,2013-11-03 06:51:00,
2013-11-02 23:56:00,40.4,34.7,29.78,East,88,2.0,3.0,80,0.00,,,0.16,LWC V2.00 B2112,2013-11-03 06:56:00,